createdAt,value
2018-10-02T00:01:40.496Z,9.27
2018-10-02T00:04:43.892Z,9.29
2018-10-02T00:07:47.375Z,9.38
2018-10-02T00:10:56.071Z,9.56
2018-10-02T00:14:04.657Z,9.64
2018-10-02T00:17:08.122Z,9.74
2018-10-02T00:20:11.575Z,9.68
2018-10-02T00:23:15.014Z,9.55
2018-10-02T00:26:18.435Z,9.56
2018-10-02T00:29:21.853Z,9.51
2018-10-02T00:32:25.722Z,9.31
2018-10-02T00:35:28.941Z,9.29
2018-10-02T00:38:32.602Z,9.26
2018-10-02T00:41:36.615Z,9.26
2018-10-02T00:44:40.133Z,9.22
2018-10-02T00:47:43.563Z,9.08
2018-10-02T00:50:46.958Z,9.01
2018-10-02T00:53:50.349Z,9.00
2018-10-02T00:56:53.764Z,9.07
2018-10-02T00:59:57.210Z,9.08
2018-10-02T01:03:00.796Z,9.10
2018-10-02T01:06:04.163Z,9.09
2018-10-02T01:09:09.679Z,9.08
2018-10-02T01:12:13.170Z,8.99
2018-10-02T01:15:16.613Z,8.84
2018-10-02T01:18:20.198Z,8.77
2018-10-02T01:21:23.742Z,8.73
2018-10-02T01:24:27.205Z,8.53
2018-10-02T01:27:30.628Z,8.44
2018-10-02T01:30:34.162Z,8.44
2018-10-02T01:33:37.800Z,8.44
2018-10-02T01:36:41.246Z,8.50
2018-10-02T01:39:44.634Z,8.50
2018-10-02T01:42:48.070Z,8.41
2018-10-02T01:45:51.476Z,8.29
2018-10-02T01:48:54.838Z,8.22
2018-10-02T01:51:58.203Z,8.18
2018-10-02T01:55:01.639Z,8.10
2018-10-02T01:58:05.178Z,8.01
2018-10-02T02:01:08.948Z,8.00
2018-10-02T02:04:12.478Z,7.88
2018-10-02T02:07:15.957Z,7.87
2018-10-02T02:10:19.488Z,7.98
2018-10-02T02:13:22.983Z,8.11
2018-10-02T02:16:26.471Z,8.16
2018-10-02T02:19:30.049Z,8.09
2018-10-02T02:22:33.560Z,7.89
2018-10-02T02:25:37.163Z,7.80
2018-10-02T02:28:40.935Z,7.73
2018-10-02T02:31:44.372Z,7.65
2018-10-02T02:34:47.901Z,7.56
2018-10-02T02:37:51.388Z,7.45
2018-10-02T02:40:54.908Z,7.39
2018-10-02T02:43:58.394Z,7.48
2018-10-02T02:47:07.183Z,7.44
2018-10-02T02:50:15.937Z,7.25
2018-10-02T02:53:21.470Z,7.20
2018-10-02T02:56:25.135Z,7.14
2018-10-02T02:59:28.637Z,7.15
2018-10-02T03:02:32.121Z,7.20
2018-10-02T03:05:35.698Z,7.19
2018-10-02T03:08:39.479Z,7.17
2018-10-02T03:11:43.024Z,7.19
2018-10-02T03:14:47.671Z,7.25
2018-10-02T03:17:51.548Z,7.34
2018-10-02T03:20:55.064Z,7.38
2018-10-02T03:23:58.561Z,7.34
2018-10-02T03:27:02.078Z,7.42
2018-10-02T03:30:05.826Z,7.46
2018-10-02T03:33:09.274Z,7.58
2018-10-02T03:36:12.767Z,7.66
2018-10-02T03:39:16.279Z,7.61
2018-10-02T03:42:19.869Z,7.63
2018-10-02T03:45:23.389Z,7.61
2018-10-02T03:48:26.884Z,7.65
2018-10-02T03:51:30.420Z,7.65
2018-10-02T03:54:33.918Z,7.58
2018-10-02T03:57:37.739Z,7.58
2018-10-02T04:00:41.203Z,7.44
2018-10-02T04:03:44.704Z,7.49
2018-10-02T04:06:48.611Z,7.64
2018-10-02T04:09:52.126Z,7.63
2018-10-02T04:12:55.716Z,7.59
2018-10-02T04:15:59.184Z,7.58
2018-10-02T04:19:02.645Z,7.60
2018-10-02T04:22:06.338Z,7.49
2018-10-02T04:25:09.903Z,7.40
2018-10-02T04:28:13.375Z,7.25
2018-10-02T04:31:16.886Z,7.40
2018-10-02T04:34:20.410Z,7.39
2018-10-02T04:37:23.859Z,7.39
2018-10-02T04:40:27.359Z,7.41
2018-10-02T04:43:30.682Z,7.44
2018-10-02T04:46:34.149Z,7.34
2018-10-02T04:49:37.654Z,7.28
2018-10-02T04:52:41.180Z,7.23
2018-10-02T04:55:44.735Z,7.31
2018-10-02T04:58:48.157Z,7.24
2018-10-02T05:01:51.602Z,7.21
2018-10-02T05:04:55.213Z,7.25
2018-10-02T05:07:58.706Z,7.26
2018-10-02T05:11:03.019Z,7.34
2018-10-02T05:14:06.632Z,7.32
2018-10-02T05:17:10.235Z,7.18
2018-10-02T05:20:13.886Z,7.20
2018-10-02T05:23:17.384Z,7.27
2018-10-02T05:26:20.813Z,7.20
2018-10-02T05:29:24.332Z,7.22
2018-10-02T05:32:28.049Z,7.35
2018-10-02T05:35:31.628Z,7.40
2018-10-02T05:38:35.032Z,7.28
2018-10-02T05:41:38.491Z,7.26
2018-10-02T05:44:41.944Z,7.20
2018-10-02T05:47:45.484Z,7.34
2018-10-02T05:50:48.911Z,7.18
2018-10-02T05:53:52.738Z,7.25
2018-10-02T05:56:56.304Z,7.09
2018-10-02T05:59:59.726Z,7.06
2018-10-02T06:03:03.133Z,7.01
2018-10-02T06:06:06.551Z,7.23
2018-10-02T06:09:11.702Z,7.22
2018-10-02T06:12:15.169Z,7.34
2018-10-02T06:15:18.644Z,7.33
2018-10-02T06:18:22.052Z,7.35
2018-10-02T06:21:25.508Z,7.43
2018-10-02T06:24:29.004Z,7.47
2018-10-02T06:27:32.394Z,7.50
2018-10-02T06:30:35.810Z,7.57
2018-10-02T06:33:39.208Z,7.69
2018-10-02T06:36:42.684Z,7.74
2018-10-02T06:39:46.092Z,7.73
2018-10-02T06:42:49.482Z,7.78
2018-10-02T06:45:52.893Z,7.88
2018-10-02T06:48:56.224Z,7.75
2018-10-02T06:51:59.805Z,7.62
2018-10-02T06:55:03.290Z,7.71
2018-10-02T06:58:06.690Z,7.91
2018-10-02T07:01:10.280Z,7.97
2018-10-02T07:04:13.690Z,8.08
2018-10-02T07:07:17.086Z,8.18
2018-10-02T07:10:20.496Z,8.17
2018-10-02T07:13:23.890Z,8.22
2018-10-02T07:16:27.289Z,8.50
2018-10-02T07:19:30.700Z,8.57
2018-10-02T07:22:34.107Z,8.43
2018-10-02T07:25:37.511Z,8.61
2018-10-02T07:28:40.915Z,8.69
2018-10-02T07:31:44.393Z,8.87
2018-10-02T07:34:47.800Z,8.92
2018-10-02T07:37:51.229Z,9.04
2018-10-02T07:40:54.632Z,8.94
2018-10-02T07:43:58.045Z,9.07
2018-10-02T07:47:01.398Z,9.08
2018-10-02T07:50:05.111Z,9.16
2018-10-02T07:53:08.516Z,9.34
2018-10-02T07:56:12.014Z,9.54
2018-10-02T07:59:15.444Z,9.69
2018-10-02T08:02:18.827Z,9.69
2018-10-02T08:05:22.372Z,9.92
2018-10-02T08:08:25.609Z,10.08
2018-10-02T08:11:29.041Z,10.10
2018-10-02T08:14:32.456Z,10.22
2018-10-02T08:17:35.875Z,10.38
2018-10-02T08:20:39.553Z,10.31
2018-10-02T08:23:43.084Z,10.26
2018-10-02T08:26:46.465Z,10.20
2018-10-02T08:29:49.847Z,10.22
2018-10-02T08:32:53.268Z,10.20
2018-10-02T08:35:56.819Z,10.14
2018-10-02T08:39:00.056Z,10.19
2018-10-02T08:42:03.431Z,10.28
2018-10-02T08:45:07.207Z,10.40
2018-10-02T08:48:10.644Z,10.66
2018-10-02T08:51:14.126Z,10.83
2018-10-02T08:54:17.618Z,10.97
2018-10-02T08:57:21.117Z,11.04
2018-10-02T09:00:24.594Z,11.31
2018-10-02T09:03:28.031Z,11.41
2018-10-02T09:06:31.576Z,11.42
2018-10-02T09:09:35.036Z,11.36
2018-10-02T09:12:38.581Z,11.41
2018-10-02T09:15:43.164Z,11.42
2018-10-02T09:18:46.775Z,11.44
2018-10-02T09:21:50.300Z,11.47
2018-10-02T09:24:53.775Z,11.56
2018-10-02T09:27:57.306Z,11.48
2018-10-02T09:31:06.076Z,11.49
2018-10-02T09:34:15.020Z,11.41
2018-10-02T09:37:23.830Z,11.38
2018-10-02T09:40:32.721Z,11.36
2018-10-02T09:43:39.976Z,11.40
2018-10-02T09:46:43.513Z,11.44
2018-10-02T09:49:47.014Z,11.66
2018-10-02T09:52:50.586Z,11.72
2018-10-02T09:55:54.080Z,11.60
2018-10-02T09:58:57.787Z,11.49
2018-10-02T10:02:06.525Z,11.43
2018-10-02T10:05:10.004Z,11.39
2018-10-02T10:08:13.455Z,11.55
2018-10-02T10:11:16.937Z,11.58
2018-10-02T10:14:20.418Z,11.59
2018-10-02T10:17:24.178Z,11.58
2018-10-02T10:20:27.634Z,11.58
2018-10-02T10:23:31.137Z,11.78
2018-10-02T10:26:34.749Z,11.75
2018-10-02T10:29:38.790Z,11.75
2018-10-02T10:32:42.251Z,11.71
2018-10-02T10:35:45.770Z,11.79
2018-10-02T10:38:49.256Z,11.85
2018-10-02T10:41:52.682Z,11.82
2018-10-02T10:44:56.102Z,11.83
2018-10-02T10:47:59.611Z,11.71
2018-10-02T10:51:03.066Z,11.81
2018-10-02T10:54:06.567Z,11.85
2018-10-02T10:57:10.065Z,11.85
2018-10-02T11:00:13.575Z,11.79
2018-10-02T11:03:17.218Z,11.80
2018-10-02T11:06:20.709Z,11.89
2018-10-02T11:09:24.219Z,11.94
2018-10-02T11:12:27.639Z,11.97
2018-10-02T11:15:32.508Z,12.08
2018-10-02T11:18:35.926Z,12.12
2018-10-02T11:21:39.467Z,11.94
2018-10-02T11:24:42.930Z,11.89
2018-10-02T11:27:46.337Z,11.85
2018-10-02T11:30:49.831Z,11.85
2018-10-02T11:33:53.221Z,11.84
2018-10-02T11:36:56.749Z,11.85
2018-10-02T11:40:00.262Z,11.82
2018-10-02T11:43:03.752Z,11.81
2018-10-02T11:46:07.651Z,11.75
2018-10-02T11:49:11.077Z,11.68
2018-10-02T11:52:14.563Z,11.67
2018-10-02T11:55:18.947Z,11.55
2018-10-02T11:58:22.385Z,11.57
2018-10-02T12:01:25.990Z,11.41
2018-10-02T12:04:29.330Z,11.46
2018-10-02T12:07:32.777Z,11.42
2018-10-02T12:10:36.177Z,11.39
2018-10-02T12:13:39.679Z,11.28
2018-10-02T12:16:43.103Z,11.31
2018-10-02T12:19:47.048Z,11.30
2018-10-02T12:22:50.395Z,11.38
2018-10-02T12:25:53.784Z,11.45
2018-10-02T12:28:57.187Z,11.45
2018-10-02T12:32:00.676Z,11.36
2018-10-02T12:35:04.115Z,11.39
2018-10-02T12:38:07.466Z,11.46
2018-10-02T12:41:10.892Z,11.56
2018-10-02T12:44:14.323Z,11.65
2018-10-02T12:47:17.896Z,11.66
2018-10-02T12:50:33.240Z,11.68
2018-10-02T12:53:36.678Z,11.70
2018-10-02T12:56:40.090Z,11.66
2018-10-02T12:59:43.570Z,11.68
2018-10-02T13:02:47.083Z,11.54
2018-10-02T13:05:50.497Z,11.60
2018-10-02T13:08:53.904Z,11.60
2018-10-02T13:11:57.275Z,11.63
2018-10-02T13:15:00.718Z,11.67
2018-10-02T13:18:04.100Z,11.76
2018-10-02T13:21:07.518Z,11.76
2018-10-02T13:24:10.998Z,11.79
2018-10-02T13:27:14.353Z,11.96
2018-10-02T13:30:17.924Z,12.04
2018-10-02T13:33:21.295Z,11.92
2018-10-02T13:36:24.693Z,11.91
2018-10-02T13:39:35.014Z,11.78
2018-10-02T13:42:38.655Z,11.53
2018-10-02T13:45:48.013Z,11.45
2018-10-02T13:48:51.794Z,11.39
2018-10-02T13:51:55.289Z,11.55
2018-10-02T13:54:58.806Z,11.64
2018-10-02T13:58:02.278Z,11.65
2018-10-02T14:01:05.956Z,11.66
2018-10-02T14:04:09.349Z,11.72
2018-10-02T14:07:12.822Z,11.84
2018-10-02T14:10:16.235Z,11.82
2018-10-02T14:13:19.965Z,11.84
2018-10-02T14:16:23.540Z,11.87
2018-10-02T14:19:26.957Z,11.98
2018-10-02T14:22:30.489Z,11.99
2018-10-02T14:25:33.963Z,12.07
2018-10-02T14:28:37.440Z,12.12
2018-10-02T14:31:40.939Z,12.11
2018-10-02T14:34:44.381Z,12.15
2018-10-02T14:37:47.810Z,12.15
2018-10-02T14:40:51.270Z,12.09
2018-10-02T14:43:54.644Z,12.09
2018-10-02T14:46:58.163Z,12.14
2018-10-02T14:50:01.554Z,12.11
2018-10-02T14:53:04.984Z,12.14
2018-10-02T14:56:08.354Z,12.23
2018-10-02T14:59:11.804Z,12.14
2018-10-02T15:02:15.634Z,12.18
2018-10-02T15:05:19.606Z,12.24
2018-10-02T15:08:22.988Z,12.19
2018-10-02T15:11:26.381Z,12.17
2018-10-02T15:14:29.784Z,12.08
2018-10-02T15:17:33.182Z,12.12
2018-10-02T15:20:36.581Z,12.19
2018-10-02T15:23:39.969Z,12.21
2018-10-02T15:26:43.621Z,12.19
2018-10-02T15:29:46.992Z,12.19
2018-10-02T15:32:50.661Z,12.15
2018-10-02T15:35:54.102Z,12.20
2018-10-02T15:38:57.480Z,12.16
2018-10-02T15:42:00.902Z,12.23
2018-10-02T15:45:04.342Z,12.16
2018-10-02T15:48:07.943Z,12.16
2018-10-02T15:51:11.527Z,12.01
2018-10-02T15:54:15.010Z,12.01
2018-10-02T15:57:18.492Z,12.01
2018-10-02T16:00:22.124Z,12.02
2018-10-02T16:03:25.742Z,11.98
2018-10-02T16:06:29.276Z,11.96
2018-10-02T16:09:32.722Z,12.00
2018-10-02T16:12:36.337Z,12.02
2018-10-02T16:15:39.942Z,11.95
2018-10-02T16:18:43.557Z,11.87
2018-10-02T16:21:47.321Z,11.91
2018-10-02T16:24:51.051Z,11.90
2018-10-02T16:27:54.860Z,11.98
2018-10-02T16:30:58.664Z,12.01
2018-10-02T16:34:02.168Z,12.00
2018-10-02T16:37:05.811Z,11.99
2018-10-02T16:40:09.266Z,12.04
2018-10-02T16:43:12.894Z,12.09
2018-10-02T16:46:16.550Z,12.09
2018-10-02T16:49:20.357Z,12.11
2018-10-02T16:52:23.833Z,12.03
2018-10-02T16:55:27.320Z,12.10
2018-10-02T16:58:30.806Z,12.13
2018-10-02T17:01:34.308Z,12.13
2018-10-02T17:04:37.820Z,12.13
2018-10-02T17:07:41.333Z,12.17
2018-10-02T17:10:44.877Z,12.21
2018-10-02T17:13:48.323Z,12.19
2018-10-02T17:16:51.906Z,12.14
2018-10-02T17:19:55.426Z,12.20
2018-10-02T17:22:58.925Z,12.16
2018-10-02T17:26:02.433Z,12.19
2018-10-02T17:29:06.128Z,12.18
2018-10-02T17:32:10.017Z,12.25
2018-10-02T17:35:13.652Z,12.29
2018-10-02T17:38:17.245Z,12.24
2018-10-02T17:41:20.795Z,12.27
2018-10-02T17:44:24.365Z,12.23
2018-10-02T17:47:27.984Z,12.24
2018-10-02T17:50:31.479Z,12.28
2018-10-02T17:53:34.997Z,12.25
2018-10-02T17:56:38.533Z,12.25
2018-10-02T17:59:41.985Z,12.27
2018-10-02T18:02:45.511Z,12.21
2018-10-02T18:05:48.977Z,12.30
2018-10-02T18:08:52.784Z,12.35
2018-10-02T18:11:56.345Z,12.38
2018-10-02T18:14:59.796Z,12.35
2018-10-02T18:18:03.460Z,12.35
2018-10-02T18:21:07.014Z,12.36
2018-10-02T18:24:10.495Z,12.40
2018-10-02T18:27:13.978Z,12.38
2018-10-02T18:30:17.463Z,12.36
2018-10-02T18:33:20.915Z,12.38
2018-10-02T18:36:24.445Z,12.43
2018-10-02T18:39:28.054Z,12.39
2018-10-02T18:42:32.665Z,12.36
2018-10-02T18:45:36.154Z,12.38
2018-10-02T18:48:39.728Z,12.48
2018-10-02T18:51:43.214Z,12.47
2018-10-02T18:54:46.666Z,12.49
2018-10-02T18:57:50.074Z,12.45
2018-10-02T19:00:53.574Z,12.48
2018-10-02T19:03:57.113Z,12.52
2018-10-02T19:07:00.737Z,12.50
2018-10-02T19:10:04.267Z,12.47
2018-10-02T19:13:07.710Z,12.47
2018-10-02T19:16:16.523Z,12.53
2018-10-02T19:19:25.154Z,12.53
2018-10-02T19:22:28.614Z,12.48
2018-10-02T19:25:37.281Z,12.52
2018-10-02T19:28:40.765Z,12.55
2018-10-02T19:31:49.559Z,12.58
2018-10-02T19:34:53.081Z,12.54
2018-10-02T19:38:01.872Z,12.54
2018-10-02T19:41:05.370Z,12.58
2018-10-02T19:44:08.886Z,12.52
2018-10-02T19:47:12.430Z,12.54
2018-10-02T19:50:15.832Z,12.53
2018-10-02T19:53:19.336Z,12.52
2018-10-02T19:56:23.027Z,12.53
2018-10-02T19:59:26.403Z,12.48
2018-10-02T20:02:29.841Z,12.39
2018-10-02T20:05:33.241Z,12.42
2018-10-02T20:08:36.792Z,12.30
2018-10-02T20:11:40.294Z,12.31
2018-10-02T20:14:43.776Z,12.31
2018-10-02T20:17:47.261Z,12.16
2018-10-02T20:20:50.661Z,12.20
2018-10-02T20:23:54.220Z,12.23
2018-10-02T20:26:58.685Z,12.24
2018-10-02T20:30:02.043Z,12.23
2018-10-02T20:33:05.511Z,12.25
2018-10-02T20:36:09.286Z,12.29
2018-10-02T20:39:13.590Z,12.31
2018-10-02T20:42:17.139Z,12.30
2018-10-02T20:45:20.973Z,12.23
2018-10-02T20:48:24.539Z,12.20
2018-10-02T20:51:28.069Z,12.17
2018-10-02T20:54:31.662Z,12.19
2018-10-02T20:57:35.082Z,12.18
2018-10-02T21:00:38.670Z,12.23
2018-10-02T21:03:42.218Z,12.20
2018-10-02T21:06:45.720Z,12.22
2018-10-02T21:09:49.170Z,12.25
2018-10-02T21:12:52.648Z,12.20
2018-10-02T21:15:56.127Z,12.19
2018-10-02T21:18:59.566Z,12.19
2018-10-02T21:22:03.233Z,12.18
2018-10-02T21:25:06.706Z,12.18
2018-10-02T21:28:10.141Z,12.12
2018-10-02T21:31:13.746Z,12.16
2018-10-02T21:34:17.181Z,12.08
2018-10-02T21:37:20.535Z,12.04
2018-10-02T21:40:23.958Z,12.09
2018-10-02T21:43:27.379Z,12.08
2018-10-02T21:46:30.747Z,12.03
2018-10-02T21:49:34.291Z,12.09
2018-10-02T21:52:37.849Z,11.94
2018-10-02T21:55:41.334Z,11.97
2018-10-02T21:58:44.929Z,11.91
2018-10-02T22:01:48.447Z,11.95
2018-10-02T22:04:51.945Z,11.98
2018-10-02T22:07:55.471Z,11.99
2018-10-02T22:10:58.958Z,11.89
2018-10-02T22:14:02.459Z,11.83
2018-10-02T22:17:07.054Z,11.80
2018-10-02T22:20:10.628Z,11.72
2018-10-02T22:23:14.166Z,11.74
2018-10-02T22:26:17.965Z,11.73
2018-10-02T22:29:21.413Z,11.75
2018-10-02T22:32:24.982Z,11.77
2018-10-02T22:35:28.612Z,11.84
2018-10-02T22:38:32.847Z,11.85
2018-10-02T22:41:36.476Z,11.89
2018-10-02T22:44:39.967Z,11.98
2018-10-02T22:47:43.460Z,11.95
2018-10-02T22:50:47.011Z,12.02
2018-10-02T22:53:50.460Z,12.02
2018-10-02T22:56:54.012Z,12.02
2018-10-02T22:59:57.456Z,12.04
2018-10-02T23:03:00.956Z,12.04
2018-10-02T23:06:04.496Z,12.13
2018-10-02T23:09:09.997Z,12.05
2018-10-02T23:12:13.535Z,12.13
2018-10-02T23:15:17.022Z,12.11
2018-10-02T23:18:20.596Z,12.15
2018-10-02T23:21:24.122Z,12.15
2018-10-02T23:24:27.716Z,12.17
2018-10-02T23:27:31.235Z,12.19
2018-10-02T23:30:34.747Z,12.16
2018-10-02T23:33:38.250Z,12.17
2018-10-02T23:36:41.769Z,12.10
2018-10-02T23:39:45.248Z,12.12
2018-10-02T23:42:48.746Z,12.11
2018-10-02T23:45:52.253Z,12.12
2018-10-02T23:48:55.749Z,12.07
2018-10-02T23:51:59.242Z,12.09
2018-10-02T23:55:02.767Z,12.02
2018-10-02T23:58:06.662Z,11.93
